Bella Desgagnes — CZJG — position and weather

sailwx.info

Track history (hours):
 
Tides and Currents Weather Stations Pressure Air Temp Water Temp Dewpoint Dewpoint Depression Visibility Wind Speed Wind Dir Waves Ship Positions

Bella Desgagnes

Last reported at 2018-Feb-22 10:00 UTC. Time now 2018-Feb-22 11:18 UTC.
Position N 49°00' W 066°54'.

Length 97 m; draft 4.5 m.

Type: Passenger vessel. MMSI: 316023823.

Wind from 300 at 11 knots

Barometer 1036.8 mb
Air temperature -11.7 ° C
Dewpoint -17.4 ° C

Date/timePositionNaut miles runAvg speedWind from/ knotsBaromVisibWave heightAir tempDewpointWater temp
2018-Feb-22 10:00N 49°00' W 066°54'0 0.0 300 / 111036.8 -11.7-17.4
2018-Feb-22 09:00N 49°00' W 066°54'0 0.0 300 / 121035.7 -11.5-17.3
2018-Feb-22 08:00N 49°00' W 066°54'0 0.0 300 / 151034.5 -11.1-17.0
2018-Feb-22 07:00N 49°00' W 066°54'0 0.0 290 / 141033.3 -10.6-16.3
2018-Feb-22 06:00N 49°00' W 066°54'0 0.0 300 / 171031.9 -10.5-16.9
2018-Feb-22 05:00N 49°00' W 066°54'0 0.0 290 / 111030.4 -10.0-15.9
2018-Feb-22 04:00N 49°00' W 066°54'0 0.0 290 / 151028.3 -9.1-14.7
2018-Feb-22 03:00N 49°00' W 066°54'0 0.0 300 / 161025.8 -7.2-12.7
2018-Feb-22 02:00N 49°00' W 066°54'0 0.0 290 / 211023.2 -5.3-11.7
2018-Feb-22 01:00N 49°00' W 066°54'0 0.0 290 / 181020.5 -2.5-7.8
2018-Feb-22 00:00N 49°00' W 066°54'0 0.0 290 / 201016.6 -0.4-7.0
2018-Feb-21 23:00N 49°00' W 066°54'0 0.0 240 / 201013.7 1.8-2.5
2018-Feb-21 22:00N 49°00' W 066°54'0 0.0 240 / 201011.9 2.4 0.2
2018-Feb-21 21:00N 49°00' W 066°54'0 0.0 260 / 41010.3 -0.0-0.8
2018-Feb-21 20:00N 49°00' W 066°54'0 0.0 1008.6 -1.4-2.1
2018-Feb-21 19:00N 49°00' W 066°54'0 0.0 1009.0 -2.5-3.1
2018-Feb-21 18:00N 49°00' W 066°54'0 0.0 350 / 31009.5 -2.1-2.9
2018-Feb-21 17:00N 49°00' W 066°54'0 0.0 040 / 31009.9 -1.8-2.8
2018-Feb-21 16:00N 49°00' W 066°54'0 0.0 010 / 11011.0 -1.8-2.4
2018-Feb-21 15:00N 49°00' W 066°54'0 0.0 1012.5 -2.2-2.9
2018-Feb-21 14:00N 49°00' W 066°54'0 0.0 340 / 21013.1 -2.3-3.0
2018-Feb-21 13:00N 49°00' W 066°54'0 0.0 340 / 31013.6 -2.6-3.5
2018-Feb-21 12:00N 49°00' W 066°54'0 0.0 350 / 31015.5 -2.8-4.1
2018-Feb-21 11:00N 49°00' W 066°54'0 0.0 260 / 41016.7 -3.7-5.4
2018-Feb-21 10:00N 49°00' W 066°54'0 0.0 1018.6 -3.8-5.5
2018-Feb-21 09:00N 49°00' W 066°54'0 0.0 1021.5 -4.3-5.1
2018-Feb-21 08:00N 49°00' W 066°54'0 0.0 1021.8 -4.3-5.6
2018-Feb-21 07:00N 49°00' W 066°54'0 0.0 1024.3 -4.0-5.4
2018-Feb-21 06:00N 49°00' W 066°54'0 0.0 240 / 21024.7 -4.5-7.0
2018-Feb-21 05:00N 49°00' W 066°54'0 0.0 100 / 31025.0 -4.6-8.4
2018-Feb-21 04:00N 49°00' W 066°54'0 0.0 070 / 21027.1 -6.3-7.8
2018-Feb-21 03:00N 49°00' W 066°54'0 0.0 110 / 21029.4 -7.3-8.7
2018-Feb-21 02:00N 49°00' W 066°54'0 0.0 110 / 31030.3 -7.0-8.6
2018-Feb-21 01:00N 49°00' W 066°54'0 0.0 060 / 71030.4 -6.6-9.5
2018-Feb-21 00:00N 49°00' W 066°54'0 0.0 090 / 61031.1 -6.9-10.9
2018-Feb-20 23:00N 49°00' W 066°54'0 0.0 070 / 111031.1 -7.2-11.5
2018-Feb-20 22:00N 49°00' W 066°54'0 0.0 070 / 101032.1 -6.3-11.4
2018-Feb-20 21:00N 49°00' W 066°54'0 0.0 070 / 171032.1 -7.4-11.7-1.2
2018-Feb-20 20:00N 49°00' W 066°54'0 0.0 070 / 231032.4 -7.2-11.4-1.2
2018-Feb-20 19:00N 49°00' W 066°54'4 3.9 050 / 181032.2 -7.4-10.9-1.1
2018-Feb-20 18:00N 49°00' W 067°00'0 0.0 040 / 131031.9 -7.8-12.0-1.1
2018-Feb-20 17:00N 49°00' W 067°00'0 0.0 020 / 111032.7 -8.2-13.3-1.1
2018-Feb-20 16:00N 49°00' W 067°00'4 3.9 270 / 131032.3 -7.7-12.4-1.1
2018-Feb-20 15:00N 49°00' W 066°54'0 0.0 300 / 91032.2 -7.2-13.7-1.2
2018-Feb-20 14:00N 49°00' W 066°54'0 0.0 300 / 81031.9 -6.8-11.7-1.2
2018-Feb-20 13:00N 49°00' W 066°54'6 6.0 030 / 171031.8 -6.2-11.9-1.2
2018-Feb-20 12:00N 49°06' W 066°54'0 0.0 040 / 191030.7 -4.8-10.3-1.2
2018-Feb-20 11:00N 49°06' W 066°54'0 0.0 020 / 201029.2 -4.2-9.3-1.1
2018-Feb-20 10:00N 49°06' W 066°54'0 0.0 360 / 141027.5 -3.2-9.6
2018-Feb-20 09:00N 49°06' W 066°54'0 0.0 040 / 181025.9 -1.2-4.8-1.1
2018-Feb-20 08:00N 49°06' W 066°54'0 0.0 240 / 41024.8 0.5-1.9-1.0
2018-Feb-20 07:00N 49°06' W 066°54'0 0.0 140 / 31023.8 -0.1-2.0-1.0
2018-Feb-20 06:00N 49°06' W 066°54'0 0.0 200 / 61023.4 0.3-1.7-1.0
2018-Feb-20 05:00N 49°06' W 066°54'0 0.0 240 / 81023.2 -0.2-2.6-1.1
2018-Feb-20 04:00N 49°06' W 066°54'4 3.9 130 / 81022.7 0.1-3.9
2018-Feb-20 03:00N 49°06' W 067°00'0 0.0 280 / 121021.6 0.2-4.4-1.1
2018-Feb-20 02:00N 49°06' W 067°00'4 3.9 230 / 81020.9 1.8-4.9-1.2
2018-Feb-20 01:00N 49°06' W 066°54'0 0.0 140 / 41020.6 0.3-5.5-1.2
2018-Feb-20 00:00N 49°06' W 066°54'0 0.0 280 / 121020.7 1.5-5.3-1.2
2018-Feb-19 23:00N 49°06' W 066°54'0 0.0 230 / 111020.5 2.2-6.0-1.1
2018-Feb-19 22:00N 49°06' W 066°54'0 0.0 220 / 121020.9 2.8-7.9-1.2
2018-Feb-19 21:00N 49°06' W 066°54'0 0.0 220 / 161020.6 2.6-7.8-1.1
2018-Feb-19 20:00N 49°06' W 066°54'0 0.0 260 / 131020.8 2.1-7.1-1.1
2018-Feb-19 19:00N 49°06' W 066°54'0 0.0 090 / 51020.4 1.7-8.7-1.1
2018-Feb-19 18:00N 49°06' W 066°54'0 0.0 180 / 101022.1 1.7-8.1-1.1
2018-Feb-19 17:00N 49°06' W 066°54'4 3.9 210 / 141023.3 0.9-6.3-1.1
2018-Feb-19 16:00N 49°06' W 067°00'0 0.0 190 / 171024.1 -0.3-5.0-1.1
2018-Feb-19 15:00N 49°06' W 067°00'0 0.0 210 / 201026.2 -0.6-5.7-1.1
2018-Feb-19 14:00N 49°06' W 067°00'0 0.0 140 / 81026.7 -1.1-7.6-1.1
2018-Feb-19 13:00N 49°06' W 067°00'6 6.0 130 / 61027.9 -1.7-7.9-1.1
2018-Feb-19 12:00N 49°00' W 067°00'0 0.0 100 / 111028.1 -1.9-8.9-1.1
2018-Feb-19 11:00N 49°00' W 067°00'0 0.0 130 / 111027.8 -2.5-8.6
2018-Feb-19 10:00N 49°00' W 067°00'0 0.0 110 / 41028.0 -3.0-8.3
2018-Feb-19 09:00N 49°00' W 067°00'0 0.0 120 / 41028.1 -3.9-8.7
2018-Feb-19 08:00N 49°00' W 067°00'0 0.0 190 / 81028.8 -4.0-7.8
2018-Feb-19 07:00N 49°00' W 067°00'0 0.0 130 / 51029.1 -4.4-9.5
2018-Feb-19 06:00N 49°00' W 067°00'0 0.0 190 / 61028.4 -4.4-9.0
2018-Feb-19 05:00N 49°00' W 067°00'0 0.0 090 / 101027.9 -3.2-8.2
2018-Feb-19 04:00N 49°00' W 067°00'0 0.0 090 / 111027.7 -3.6-7.4
2018-Feb-19 03:00N 49°00' W 067°00'0 0.0 160 / 61027.4 -3.2-6.8
2018-Feb-19 02:00N 49°00' W 067°00'0 0.0 240 / 141025.8 -2.8-6.4-1.1
2018-Feb-19 01:00N 49°00' W 067°00'0 0.0 240 / 161025.0 -2.9-5.9-1.1
2018-Feb-19 00:00N 49°00' W 067°00'0 0.0 210 / 121023.4 -3.1-5.6-1.2
2018-Feb-18 23:00N 49°00' W 067°00'0 0.0 180 / 71021.3 -2.8-5.4
2018-Feb-18 22:00N 49°00' W 067°00'0 0.0 240 / 161020.6 -1.9-5.0-1.1
2018-Feb-18 21:00N 49°00' W 067°00'0 0.0 240 / 151019.4 -1.6-5.2-1.1
2018-Feb-18 20:00N 49°00' W 067°00'0 0.0 250 / 161018.3 -2.0-6.1
2018-Feb-18 19:00N 49°00' W 067°00'0 0.0 250 / 131017.6 -2.2-5.5
2018-Feb-18 18:00N 49°00' W 067°00'0 0.0 220 / 91017.5 -2.8-7.5
2018-Feb-18 17:00N 49°00' W 067°00'0 0.0 180 / 91017.0 -3.3-7.8
2018-Feb-18 16:00N 49°00' W 067°00'0 0.0 120 / 71017.1 -4.2-8.0-1.1
2018-Feb-18 15:00N 49°00' W 067°00'0 0.0 170 / 61016.8 -4.3-8.4-1.1
2018-Feb-18 14:00N 49°00' W 067°00'0 0.0 190 / 81016.5 -4.3-10.1-1.2
2018-Feb-18 13:00N 49°00' W 067°00'0 0.0 060 / 101015.8 -4.9-10.7-1.1
2018-Feb-18 12:00N 49°00' W 067°00'4 3.9 070 / 111015.3 -4.7-11.2-1.1
2018-Feb-18 11:00N 49°00' W 067°06'0 0.0 080 / 121014.9 -4.8-12.6-1.1
2018-Feb-18 10:00N 49°00' W 067°06'0 0.0 070 / 141014.8 -5.2-14.0
2018-Feb-18 09:00N 49°00' W 067°06'0 0.0 070 / 141014.8 -5.4-15.6
2018-Feb-18 08:00N 49°00' W 067°06'0 0.0 070 / 151015.2 -5.3-16.5
2018-Feb-18 07:00N 49°00' W 067°06'0 0.0 120 / 61015.6 -5.2-16.5
2018-Feb-18 06:00N 49°00' W 067°06'0 0.0 150 / 121016.5 -5.4-16.3-1.1
2018-Feb-18 05:00N 49°00' W 067°06'0 0.0 080 / 101017.4 -6.0-17.2-1.1
2018-Feb-18 04:00N 49°00' W 067°06'4 3.9 200 / 161018.8 -6.1-16.8-1.2
2018-Feb-18 03:00N 49°00' W 067°12'7 7.2 190 / 201019.7 -7.1-16.5-1.2
2018-Feb-18 02:00N 48°54' W 067°18'8 7.9 190 / 201020.5 -7.5-16.4-1.2
2018-Feb-18 01:00N 48°54' W 067°30'8 7.9 180 / 141021.4 -8.6-16.3-1.2
2018-Feb-18 00:00N 48°54' W 067°42'10 9.9 160 / 131021.1 -8.4-16.5-1.1
2018-Feb-17 23:00N 48°48' W 067°54'1313.3 120 / 131022.0 -8.3-14.4-1.1
2018-Feb-17 22:00N 48°42' W 068°12'1313.3 130 / 111022.2 -7.3-15.8-0.9
2018-Feb-17 21:00N 48°36' W 068°30'6 6.0 140 / 81023.1 -7.0-16.7-0.7
2018-Feb-17 20:00N 48°30' W 068°30'0 0.0 1023.8 -8.3-18.0
2018-Feb-17 19:00N 48°30' W 068°30'0 0.0 230 / 11024.8 -8.6-18.3
2018-Feb-17 18:00N 48°30' W 068°30'0 0.0 180 / 51025.8 -9.4-18.0
2018-Feb-17 17:00N 48°30' W 068°30'0 0.0 200 / 81026.4 -10.1-17.5
2018-Feb-17 16:00N 48°30' W 068°30'0 0.0 200 / 51026.7 -10.5-19.0
2018-Feb-17 15:00N 48°30' W 068°30'0 0.0 290 / 51027.0 -11.1-20.3
2018-Feb-17 14:00N 48°30' W 068°30'0 0.0 310 / 81026.8 -12.1-21.4
2018-Feb-17 13:00N 48°30' W 068°30'0 0.0 300 / 101026.5 -12.7-22.5
2018-Feb-17 12:00N 48°30' W 068°30'0 0.0 300 / 111025.4 -13.3-22.6
2018-Feb-17 11:00N 48°30' W 068°30'0 0.0 170 / 121024.3 -14.0-22.5
2018-Feb-17 10:00N 48°30' W 068°30'0 0.0 170 / 81023.4 -14.1-22.8
2018-Feb-17 09:00N 48°30' W 068°30'0 0.0 180 / 81022.1 -14.1-22.3
2018-Feb-17 08:00N 48°30' W 068°30'0 0.0 320 / 91021.1 -14.0-22.1
2018-Feb-17 07:00N 48°30' W 068°30'0 0.0 330 / 131020.2 -14.0-22.3
2018-Feb-17 06:00N 48°30' W 068°30'0 0.0 300 / 171018.4 -13.7-21.3
2018-Feb-17 05:00N 48°30' W 068°30'0 0.0 210 / 71017.1 -13.4-21.2
2018-Feb-17 04:00N 48°30' W 068°30'0 0.0 290 / 251015.2 -12.7-20.5
2018-Feb-17 03:00N 48°30' W 068°30'0 0.0 210 / 81014.0 -12.3-20.3
2018-Feb-17 02:00N 48°30' W 068°30'0 0.0 160 / 111012.9 -12.0-20.4
2018-Feb-17 01:00N 48°30' W 068°30'0 0.0 240 / 71010.7 -11.1-21.0
2018-Feb-17 00:00N 48°30' W 068°30'0 0.0 250 / 91008.8 -9.7-18.9
2018-Feb-16 23:00N 48°30' W 068°30'0 0.0 190 / 91006.7 -8.6-18.0
2018-Feb-16 22:00N 48°30' W 068°30'0 0.0 300 / 191005.0 -7.5-15.9
2018-Feb-16 21:00N 48°30' W 068°30'0 0.0 310 / 191004.0 -6.1-14.6
2018-Feb-16 20:00N 48°30' W 068°30'0 0.0 310 / 171003.2 -5.1-12.9
2018-Feb-16 19:00N 48°30' W 068°30'0 0.0 160 / 131002.0 -5.0-11.5
2018-Feb-16 18:00N 48°30' W 068°30'0 0.0 230 / 71001.4 -4.0-10.1
2018-Feb-16 17:00N 48°30' W 068°30'0 0.0 170 / 61001.4 -4.3-10.8
2018-Feb-16 16:00N 48°30' W 068°30'0 0.0 210 / 41001.2 -3.8-8.5
2018-Feb-16 15:00N 48°30' W 068°30'0 0.0 310 / 101001.5 -2.9-7.4
2018-Feb-16 14:00N 48°30' W 068°30'0 0.0 310 / 191001.5 -2.0-7.4
2018-Feb-16 13:00N 48°30' W 068°30'0 0.0 300 / 191000.8 -1.3-5.7
2018-Feb-16 12:00N 48°30' W 068°30'0 0.0 240 / 151000.0 -0.9-2.9
2018-Feb-16 11:00N 48°30' W 068°30'0 0.0 230 / 12998.6 -0.5-2.6
2018-Feb-16 10:00N 48°30' W 068°30'0 0.0 180 / 11998.0 -0.2-2.2
2018-Feb-16 09:00N 48°30' W 068°30'0 0.0 220 / 15996.4 -0.1-1.8
2018-Feb-16 08:00N 48°30' W 068°30'0 0.0 150 / 18995.4 1.2-0.9
2018-Feb-16 07:00N 48°30' W 068°30'0 0.0 170 / 9995.2 0.3-0.0
2018-Feb-16 06:00N 48°30' W 068°30'0 0.0 150 / 11995.1 -1.9-2.2
2018-Feb-16 05:00N 48°30' W 068°30'0 0.0 160 / 14995.2 -1.4-1.8
2018-Feb-16 04:00N 48°30' W 068°30'0 0.0 150 / 12994.8 -0.6-1.3
2018-Feb-16 03:00N 48°30' W 068°30'0 0.0 310 / 1995.8 0.4-0.5
2018-Feb-16 02:00N 48°30' W 068°30'0 0.0 050 / 4996.8 -0.9-1.3
2018-Feb-16 01:00N 48°30' W 068°30'0 0.0 997.6 -0.5-0.9
2018-Feb-16 00:00N 48°30' W 068°30'0 0.0 040 / 4998.6 -1.2-1.6
2018-Feb-15 23:00N 48°30' W 068°30'0 0.0 070 / 2999.8 -1.6-2.1
2018-Feb-15 22:00N 48°30' W 068°30'0 0.0 070 / 41000.6 -1.8-2.4
2018-Feb-15 21:00N 48°30' W 068°30'0 0.0 050 / 51001.9 -1.9-2.7
2018-Feb-15 20:00N 48°30' W 068°30'0 0.0 040 / 61002.6 -1.8-2.7
2018-Feb-15 19:00N 48°30' W 068°30'0 0.0 050 / 71003.2 -1.5-2.4
2018-Feb-15 18:00N 48°30' W 068°30'0 0.0 040 / 81004.4 -0.9-1.5
2018-Feb-15 17:00N 48°30' W 068°30'0 0.0 060 / 21006.1 -0.6-1.2
2018-Feb-15 16:00N 48°30' W 068°30'0 0.0 030 / 31007.3 -0.8-1.6
2018-Feb-15 15:00N 48°30' W 068°30'0 0.0 050 / 11008.3 0.1-1.9
2018-Feb-15 14:00N 48°30' W 068°30'0 0.0 090 / 21008.6 -0.1-2.1
2018-Feb-15 13:00N 48°30' W 068°30'0 0.0 1009.2 -0.8-1.9
2018-Feb-15 12:00N 48°30' W 068°30'0 0.0 1009.0 0.1-2.8
2018-Feb-15 11:00N 48°30' W 068°30'0 0.0 200 / 41008.9 0.1-2.9
2018-Feb-15 10:00N 48°30' W 068°30'0 0.0 200 / 51009.1 0.1-2.8
2018-Feb-15 09:00N 48°30' W 068°30'0 0.0 140 / 71009.1 -1.0-2.5
2018-Feb-15 08:00N 48°30' W 068°30'0 0.0 140 / 61009.3 -0.7-3.2
2018-Feb-15 07:00N 48°30' W 068°30'0 0.0 140 / 21009.4 -1.3-3.2
2018-Feb-15 06:00N 48°30' W 068°30'0 0.0 140 / 51009.8 -0.6-3.0
2018-Feb-15 05:00N 48°30' W 068°30'0 0.0 150 / 101010.0 -0.3-3.1
2018-Feb-15 04:00N 48°30' W 068°30'0 0.0 210 / 81009.9 -0.0-3.5
2018-Feb-15 03:00N 48°30' W 068°30'0 0.0 140 / 91009.9 -0.2-4.4
2018-Feb-15 02:00N 48°30' W 068°30'0 0.0 150 / 91010.7 -0.7-4.5
2018-Feb-15 01:00N 48°30' W 068°30'0 0.0 200 / 101010.5 -0.4-4.9
2018-Feb-15 00:00N 48°30' W 068°30'0 0.0 210 / 151010.0 -0.8-4.1
2018-Feb-14 23:00N 48°30' W 068°30'0 0.0 150 / 141009.4 -0.9-4.6
2018-Feb-14 22:00N 48°30' W 068°30'0 0.0 150 / 131009.0 -1.4-5.3
2018-Feb-14 21:00N 48°30' W 068°30'0 0.0 160 / 121009.6 -1.7-5.6
2018-Feb-14 20:00N 48°30' W 068°30'0 0.0 240 / 151009.8 -2.1-6.5
2018-Feb-14 19:00N 48°30' W 068°30'0 0.0 240 / 121010.6 -2.1-7.6
2018-Feb-14 18:00N 48°30' W 068°30'0 0.0 210 / 141010.7 -2.4-7.8
2018-Feb-14 17:00N 48°30' W 068°30'0 0.0 140 / 181011.7 -2.0-9.1
2018-Feb-14 16:00N 48°30' W 068°30'0 0.0 180 / 111012.9 -1.6-10.3
2018-Feb-14 15:00N 48°30' W 068°30'0 0.0 190 / 121013.3 -3.5-13.2
2018-Feb-14 14:00N 48°30' W 068°30'0 0.0 190 / 161014.3 -4.4-14.2
2018-Feb-14 13:00N 48°30' W 068°30'0 0.0 180 / 141015.1 -5.4-14.5
2018-Feb-14 12:00N 48°30' W 068°30'0 0.0 190 / 201015.2 -5.8-15.5
2018-Feb-14 11:00N 48°30' W 068°30'0 0.0 200 / 181015.1 -6.3-15.3
2018-Feb-14 10:00N 48°30' W 068°30'0 0.0 180 / 171016.3 -6.6-15.6
2018-Feb-14 09:00N 48°30' W 068°30'0 0.0 180 / 161017.6 -7.0-16.4
2018-Feb-14 08:00N 48°30' W 068°30'0 0.0 180 / 151019.7 -7.7-16.7
2018-Feb-14 07:00N 48°30' W 068°30'0 0.0 190 / 161021.4 -8.6-17.3
2018-Feb-14 06:00N 48°30' W 068°30'0 0.0 190 / 111022.9 -9.6-18.0
2018-Feb-14 05:00N 48°30' W 068°30'0 0.0 190 / 131024.8 -10.4-18.3
2018-Feb-14 04:00N 48°30' W 068°30'0 0.0 200 / 141026.3 -10.0-17.8
2018-Feb-14 03:00N 48°30' W 068°30'0 0.0 200 / 121028.1 -9.3-17.3
2018-Feb-14 01:00N 48°30' W 068°30'0 0.0 200 / 141031.1 -10.9-18.7
2018-Feb-14 00:00N 48°30' W 068°30'0 0.0 200 / 121032.6 -11.7-21.0
2018-Feb-13 23:00N 48°30' W 068°30'0 0.0 200 / 51033.9 -11.5-20.9
2018-Feb-13 22:00N 48°30' W 068°30'0 0.0 210 / 81035.2 -12.2-20.6
2018-Feb-13 21:00N 48°30' W 068°30'0 0.0 220 / 111035.9 -11.2-19.5
2018-Feb-13 20:00N 48°30' W 068°30'0 0.0 210 / 111036.7 -11.4-20.2
2018-Feb-13 19:00N 48°30' W 068°30'0 0.0 230 / 131037.4 -11.7-20.1
2018-Feb-13 18:00N 48°30' W 068°30'0 0.0 220 / 131038.6 -12.3-20.1
2018-Feb-13 17:00N 48°30' W 068°30'0 0.0 220 / 141039.7 -13.8-20.4
2018-Feb-13 16:00N 48°30' W 068°30'0 0.0 240 / 111040.8 -14.1-21.4
2018-Feb-13 15:00N 48°30' W 068°30'0 0.0 180 / 81041.5 -14.9-23.0
2018-Feb-13 14:00N 48°30' W 068°30'0 0.0 270 / 81041.8 -15.5-23.6
2018-Feb-13 13:00N 48°30' W 068°30'0 0.0 170 / 91041.6 -16.6-24.0
2018-Feb-13 12:00N 48°30' W 068°30'0 0.0 220 / 71041.3 -17.2-24.4
2018-Feb-13 11:00N 48°30' W 068°30'0 0.0 180 / 71040.2 -17.3-24.4
2018-Feb-13 10:00N 48°30' W 068°30'0 0.0 280 / 111039.4 -17.2-25.5
2018-Feb-13 09:00N 48°30' W 068°30'0 0.0 290 / 161038.2 -16.5-23.7
2018-Feb-13 08:00N 48°30' W 068°30'0 0.0 280 / 141037.0 -15.8-23.5
2018-Feb-13 07:00N 48°30' W 068°30'0 0.0 280 / 201035.3 -14.9-23.6
2018-Feb-13 06:00N 48°30' W 068°30'0 0.0 270 / 211033.9 -14.1-22.5
2018-Feb-13 05:00N 48°30' W 068°30'0 0.0 260 / 111032.6 -13.1-22.6
2018-Feb-13 04:00N 48°30' W 068°30'0 0.0 280 / 221031.2 -12.0-22.1
2018-Feb-13 03:00N 48°30' W 068°30'0 0.0 220 / 91030.1 -10.9-20.6
2018-Feb-13 02:00N 48°30' W 068°30'0 0.0 270 / 241028.5 -10.3-19.6
2018-Feb-13 01:00N 48°30' W 068°30'0 0.0 240 / 141028.0 -9.5-19.4
2018-Feb-13 00:00N 48°30' W 068°30'0 0.0 170 / 131027.2 -9.0-19.2
2018-Feb-12 23:00N 48°30' W 068°30'0 0.0 260 / 131025.1 -8.2-17.6
2018-Feb-12 22:00N 48°30' W 068°30'0 0.0 270 / 151023.4 -7.0-15.3
2018-Feb-12 21:00N 48°30' W 068°30'0 0.0 260 / 201020.2 -5.6-14.6
2018-Feb-12 19:00N 48°30' W 068°30'0 0.0 260 / 261017.6 -4.6-13.6
2018-Feb-12 18:00N 48°30' W 068°30'0 0.0 240 / 231016.6 -4.7-11.6
2018-Feb-12 17:00N 48°30' W 068°30'0 0.0 240 / 211015.9 -4.6-11.7
2018-Feb-12 16:00N 48°30' W 068°30'0 0.0 220 / 191015.4 -4.4-11.5
2018-Feb-12 15:00N 48°30' W 068°30'0 0.0 230 / 211014.1 -4.4-11.3
2018-Feb-12 14:00N 48°30' W 068°30'0 0.0 210 / 201013.2 -4.2-11.2
2018-Feb-12 13:00N 48°30' W 068°30'0 0.0 220 / 191012.4 -4.2-9.7
2018-Feb-12 12:00N 48°30' W 068°30'0 0.0 170 / 191011.0 -4.1-9.2
2018-Feb-12 11:00N 48°30' W 068°30'0 0.0 180 / 161008.6 -3.9-8.4
2018-Feb-12 10:00N 48°30' W 068°30'   220 / 171007.0 -4.0-6.6
Track history (hours):
 
Tides and Currents Weather Stations Pressure Air Temp Water Temp Dewpoint Dewpoint Depression Visibility Wind Speed Wind Dir Waves Ship Positions

Bella Desgagnes

Last reported at 2018-Feb-22 10:00 UTC. Time now 2018-Feb-22 11:18 UTC.
Position N 49°00' W 066°54'.

Length 97 m; draft 4.5 m.

Type: Passenger vessel. MMSI: 316023823.

Wind from 300 at 11 knots

Barometer 1036.8 mb
Air temperature -11.7 ° C
Dewpoint -17.4 ° C

Date/timePositionNaut miles runAvg speedWind from/ knotsBaromVisibWave heightAir tempDewpointWater temp
2018-Feb-22 10:00N 49°00' W 066°54'0 0.0 300 / 111036.8 -11.7-17.4
2018-Feb-22 09:00N 49°00' W 066°54'0 0.0 300 / 121035.7 -11.5-17.3
2018-Feb-22 08:00N 49°00' W 066°54'0 0.0 300 / 151034.5 -11.1-17.0
2018-Feb-22 07:00N 49°00' W 066°54'0 0.0 290 / 141033.3 -10.6-16.3
2018-Feb-22 06:00N 49°00' W 066°54'0 0.0 300 / 171031.9 -10.5-16.9
2018-Feb-22 05:00N 49°00' W 066°54'0 0.0 290 / 111030.4 -10.0-15.9
2018-Feb-22 04:00N 49°00' W 066°54'0 0.0 290 / 151028.3 -9.1-14.7
2018-Feb-22 03:00N 49°00' W 066°54'0 0.0 300 / 161025.8 -7.2-12.7
2018-Feb-22 02:00N 49°00' W 066°54'0 0.0 290 / 211023.2 -5.3-11.7
2018-Feb-22 01:00N 49°00' W 066°54'0 0.0 290 / 181020.5 -2.5-7.8
2018-Feb-22 00:00N 49°00' W 066°54'0 0.0 290 / 201016.6 -0.4-7.0
2018-Feb-21 23:00N 49°00' W 066°54'0 0.0 240 / 201013.7 1.8-2.5
2018-Feb-21 22:00N 49°00' W 066°54'0 0.0 240 / 201011.9 2.4 0.2
2018-Feb-21 21:00N 49°00' W 066°54'0 0.0 260 / 41010.3 -0.0-0.8
2018-Feb-21 20:00N 49°00' W 066°54'0 0.0 1008.6 -1.4-2.1
2018-Feb-21 19:00N 49°00' W 066°54'0 0.0 1009.0 -2.5-3.1
2018-Feb-21 18:00N 49°00' W 066°54'0 0.0 350 / 31009.5 -2.1-2.9
2018-Feb-21 17:00N 49°00' W 066°54'0 0.0 040 / 31009.9 -1.8-2.8
2018-Feb-21 16:00N 49°00' W 066°54'0 0.0 010 / 11011.0 -1.8-2.4
2018-Feb-21 15:00N 49°00' W 066°54'0 0.0 1012.5 -2.2-2.9
2018-Feb-21 14:00N 49°00' W 066°54'0 0.0 340 / 21013.1 -2.3-3.0
2018-Feb-21 13:00N 49°00' W 066°54'0 0.0 340 / 31013.6 -2.6-3.5
2018-Feb-21 12:00N 49°00' W 066°54'0 0.0 350 / 31015.5 -2.8-4.1
2018-Feb-21 11:00N 49°00' W 066°54'0 0.0 260 / 41016.7 -3.7-5.4
2018-Feb-21 10:00N 49°00' W 066°54'0 0.0 1018.6 -3.8-5.5
2018-Feb-21 09:00N 49°00' W 066°54'0 0.0 1021.5 -4.3-5.1
2018-Feb-21 08:00N 49°00' W 066°54'0 0.0 1021.8 -4.3-5.6
2018-Feb-21 07:00N 49°00' W 066°54'0 0.0 1024.3 -4.0-5.4
2018-Feb-21 06:00N 49°00' W 066°54'0 0.0 240 / 21024.7 -4.5-7.0
2018-Feb-21 05:00N 49°00' W 066°54'0 0.0 100 / 31025.0 -4.6-8.4
2018-Feb-21 04:00N 49°00' W 066°54'0 0.0 070 / 21027.1 -6.3-7.8
2018-Feb-21 03:00N 49°00' W 066°54'0 0.0 110 / 21029.4 -7.3-8.7
2018-Feb-21 02:00N 49°00' W 066°54'0 0.0 110 / 31030.3 -7.0-8.6
2018-Feb-21 01:00N 49°00' W 066°54'0 0.0 060 / 71030.4 -6.6-9.5
2018-Feb-21 00:00N 49°00' W 066°54'0 0.0 090 / 61031.1 -6.9-10.9
2018-Feb-20 23:00N 49°00' W 066°54'0 0.0 070 / 111031.1 -7.2-11.5
2018-Feb-20 22:00N 49°00' W 066°54'0 0.0 070 / 101032.1 -6.3-11.4
2018-Feb-20 21:00N 49°00' W 066°54'0 0.0 070 / 171032.1 -7.4-11.7-1.2
2018-Feb-20 20:00N 49°00' W 066°54'0 0.0 070 / 231032.4 -7.2-11.4-1.2
2018-Feb-20 19:00N 49°00' W 066°54'4 3.9 050 / 181032.2 -7.4-10.9-1.1
2018-Feb-20 18:00N 49°00' W 067°00'0 0.0 040 / 131031.9 -7.8-12.0-1.1
2018-Feb-20 17:00N 49°00' W 067°00'0 0.0 020 / 111032.7 -8.2-13.3-1.1
2018-Feb-20 16:00N 49°00' W 067°00'4 3.9 270 / 131032.3 -7.7-12.4-1.1
2018-Feb-20 15:00N 49°00' W 066°54'0 0.0 300 / 91032.2 -7.2-13.7-1.2
2018-Feb-20 14:00N 49°00' W 066°54'0 0.0 300 / 81031.9 -6.8-11.7-1.2
2018-Feb-20 13:00N 49°00' W 066°54'6 6.0 030 / 171031.8 -6.2-11.9-1.2
2018-Feb-20 12:00N 49°06' W 066°54'0 0.0 040 / 191030.7 -4.8-10.3-1.2
2018-Feb-20 11:00N 49°06' W 066°54'0 0.0 020 / 201029.2 -4.2-9.3-1.1
2018-Feb-20 10:00N 49°06' W 066°54'0 0.0 360 / 141027.5 -3.2-9.6
2018-Feb-20 09:00N 49°06' W 066°54'0 0.0 040 / 181025.9 -1.2-4.8-1.1
2018-Feb-20 08:00N 49°06' W 066°54'0 0.0 240 / 41024.8 0.5-1.9-1.0
2018-Feb-20 07:00N 49°06' W 066°54'0 0.0 140 / 31023.8 -0.1-2.0-1.0
2018-Feb-20 06:00N 49°06' W 066°54'0 0.0 200 / 61023.4 0.3-1.7-1.0
2018-Feb-20 05:00N 49°06' W 066°54'0 0.0 240 / 81023.2 -0.2-2.6-1.1
2018-Feb-20 04:00N 49°06' W 066°54'4 3.9 130 / 81022.7 0.1-3.9
2018-Feb-20 03:00N 49°06' W 067°00'0 0.0 280 / 121021.6 0.2-4.4-1.1
2018-Feb-20 02:00N 49°06' W 067°00'4 3.9 230 / 81020.9 1.8-4.9-1.2
2018-Feb-20 01:00N 49°06' W 066°54'0 0.0 140 / 41020.6 0.3-5.5-1.2
2018-Feb-20 00:00N 49°06' W 066°54'0 0.0 280 / 121020.7 1.5-5.3-1.2
2018-Feb-19 23:00N 49°06' W 066°54'0 0.0 230 / 111020.5 2.2-6.0-1.1
2018-Feb-19 22:00N 49°06' W 066°54'0 0.0 220 / 121020.9 2.8-7.9-1.2
2018-Feb-19 21:00N 49°06' W 066°54'0 0.0 220 / 161020.6 2.6-7.8-1.1
2018-Feb-19 20:00N 49°06' W 066°54'0 0.0 260 / 131020.8 2.1-7.1-1.1
2018-Feb-19 19:00N 49°06' W 066°54'0 0.0 090 / 51020.4 1.7-8.7-1.1
2018-Feb-19 18:00N 49°06' W 066°54'0 0.0 180 / 101022.1 1.7-8.1-1.1
2018-Feb-19 17:00N 49°06' W 066°54'4 3.9 210 / 141023.3 0.9-6.3-1.1
2018-Feb-19 16:00N 49°06' W 067°00'0 0.0 190 / 171024.1 -0.3-5.0-1.1
2018-Feb-19 15:00N 49°06' W 067°00'0 0.0 210 / 201026.2 -0.6-5.7-1.1
2018-Feb-19 14:00N 49°06' W 067°00'0 0.0 140 / 81026.7 -1.1-7.6-1.1
2018-Feb-19 13:00N 49°06' W 067°00'6 6.0 130 / 61027.9 -1.7-7.9-1.1
2018-Feb-19 12:00N 49°00' W 067°00'0 0.0 100 / 111028.1 -1.9-8.9-1.1
2018-Feb-19 11:00N 49°00' W 067°00'0 0.0 130 / 111027.8 -2.5-8.6
2018-Feb-19 10:00N 49°00' W 067°00'0 0.0 110 / 41028.0 -3.0-8.3
2018-Feb-19 09:00N 49°00' W 067°00'0 0.0 120 / 41028.1 -3.9-8.7
2018-Feb-19 08:00N 49°00' W 067°00'0 0.0 190 / 81028.8 -4.0-7.8
2018-Feb-19 07:00N 49°00' W 067°00'0 0.0 130 / 51029.1 -4.4-9.5
2018-Feb-19 06:00N 49°00' W 067°00'0 0.0 190 / 61028.4 -4.4-9.0
2018-Feb-19 05:00N 49°00' W 067°00'0 0.0 090 / 101027.9 -3.2-8.2
2018-Feb-19 04:00N 49°00' W 067°00'0 0.0 090 / 111027.7 -3.6-7.4
2018-Feb-19 03:00N 49°00' W 067°00'0 0.0 160 / 61027.4 -3.2-6.8
2018-Feb-19 02:00N 49°00' W 067°00'0 0.0 240 / 141025.8 -2.8-6.4-1.1
2018-Feb-19 01:00N 49°00' W 067°00'0 0.0 240 / 161025.0 -2.9-5.9-1.1
2018-Feb-19 00:00N 49°00' W 067°00'0 0.0 210 / 121023.4 -3.1-5.6-1.2
2018-Feb-18 23:00N 49°00' W 067°00'0 0.0 180 / 71021.3 -2.8-5.4
2018-Feb-18 22:00N 49°00' W 067°00'0 0.0 240 / 161020.6 -1.9-5.0-1.1
2018-Feb-18 21:00N 49°00' W 067°00'0 0.0 240 / 151019.4 -1.6-5.2-1.1
2018-Feb-18 20:00N 49°00' W 067°00'0 0.0 250 / 161018.3 -2.0-6.1
2018-Feb-18 19:00N 49°00' W 067°00'0 0.0 250 / 131017.6 -2.2-5.5
2018-Feb-18 18:00N 49°00' W 067°00'0 0.0 220 / 91017.5 -2.8-7.5
2018-Feb-18 17:00N 49°00' W 067°00'0 0.0 180 / 91017.0 -3.3-7.8
2018-Feb-18 16:00N 49°00' W 067°00'0 0.0 120 / 71017.1 -4.2-8.0-1.1
2018-Feb-18 15:00N 49°00' W 067°00'0 0.0 170 / 61016.8 -4.3-8.4-1.1
2018-Feb-18 14:00N 49°00' W 067°00'0 0.0 190 / 81016.5 -4.3-10.1-1.2
2018-Feb-18 13:00N 49°00' W 067°00'0 0.0 060 / 101015.8 -4.9-10.7-1.1
2018-Feb-18 12:00N 49°00' W 067°00'4 3.9 070 / 111015.3 -4.7-11.2-1.1
2018-Feb-18 11:00N 49°00' W 067°06'0 0.0 080 / 121014.9 -4.8-12.6-1.1
2018-Feb-18 10:00N 49°00' W 067°06'0 0.0 070 / 141014.8 -5.2-14.0
2018-Feb-18 09:00N 49°00' W 067°06'0 0.0 070 / 141014.8 -5.4-15.6
2018-Feb-18 08:00N 49°00' W 067°06'0 0.0 070 / 151015.2 -5.3-16.5
2018-Feb-18 07:00N 49°00' W 067°06'0 0.0 120 / 61015.6 -5.2-16.5
2018-Feb-18 06:00N 49°00' W 067°06'0 0.0 150 / 121016.5 -5.4-16.3-1.1
2018-Feb-18 05:00N 49°00' W 067°06'0 0.0 080 / 101017.4 -6.0-17.2-1.1
2018-Feb-18 04:00N 49°00' W 067°06'4 3.9 200 / 161018.8 -6.1-16.8-1.2
2018-Feb-18 03:00N 49°00' W 067°12'7 7.2 190 / 201019.7 -7.1-16.5-1.2
2018-Feb-18 02:00N 48°54' W 067°18'8 7.9 190 / 201020.5 -7.5-16.4-1.2
2018-Feb-18 01:00N 48°54' W 067°30'8 7.9 180 / 141021.4 -8.6-16.3-1.2
2018-Feb-18 00:00N 48°54' W 067°42'10 9.9 160 / 131021.1 -8.4-16.5-1.1
2018-Feb-17 23:00N 48°48' W 067°54'1313.3 120 / 131022.0 -8.3-14.4-1.1
2018-Feb-17 22:00N 48°42' W 068°12'1313.3 130 / 111022.2 -7.3-15.8-0.9
2018-Feb-17 21:00N 48°36' W 068°30'6 6.0 140 / 81023.1 -7.0-16.7-0.7
2018-Feb-17 20:00N 48°30' W 068°30'0 0.0 1023.8 -8.3-18.0
2018-Feb-17 19:00N 48°30' W 068°30'0 0.0 230 / 11024.8 -8.6-18.3
2018-Feb-17 18:00N 48°30' W 068°30'0 0.0 180 / 51025.8 -9.4-18.0
2018-Feb-17 17:00N 48°30' W 068°30'0 0.0 200 / 81026.4 -10.1-17.5
2018-Feb-17 16:00N 48°30' W 068°30'0 0.0 200 / 51026.7 -10.5-19.0
2018-Feb-17 15:00N 48°30' W 068°30'0 0.0 290 / 51027.0 -11.1-20.3
2018-Feb-17 14:00N 48°30' W 068°30'0 0.0 310 / 81026.8 -12.1-21.4
2018-Feb-17 13:00N 48°30' W 068°30'0 0.0 300 / 101026.5 -12.7-22.5
2018-Feb-17 12:00N 48°30' W 068°30'0 0.0 300 / 111025.4 -13.3-22.6
2018-Feb-17 11:00N 48°30' W 068°30'0 0.0 170 / 121024.3 -14.0-22.5
2018-Feb-17 10:00N 48°30' W 068°30'0 0.0 170 / 81023.4 -14.1-22.8
2018-Feb-17 09:00N 48°30' W 068°30'0 0.0 180 / 81022.1 -14.1-22.3
2018-Feb-17 08:00N 48°30' W 068°30'0 0.0 320 / 91021.1 -14.0-22.1
2018-Feb-17 07:00N 48°30' W 068°30'0 0.0 330 / 131020.2 -14.0-22.3
2018-Feb-17 06:00N 48°30' W 068°30'0 0.0 300 / 171018.4 -13.7-21.3
2018-Feb-17 05:00N 48°30' W 068°30'0 0.0 210 / 71017.1 -13.4-21.2
2018-Feb-17 04:00N 48°30' W 068°30'0 0.0 290 / 251015.2 -12.7-20.5
2018-Feb-17 03:00N 48°30' W 068°30'0 0.0 210 / 81014.0 -12.3-20.3
2018-Feb-17 02:00N 48°30' W 068°30'0 0.0 160 / 111012.9 -12.0-20.4
2018-Feb-17 01:00N 48°30' W 068°30'0 0.0 240 / 71010.7 -11.1-21.0
2018-Feb-17 00:00N 48°30' W 068°30'0 0.0 250 / 91008.8 -9.7-18.9
2018-Feb-16 23:00N 48°30' W 068°30'0 0.0 190 / 91006.7 -8.6-18.0
2018-Feb-16 22:00N 48°30' W 068°30'0 0.0 300 / 191005.0 -7.5-15.9
2018-Feb-16 21:00N 48°30' W 068°30'0 0.0 310 / 191004.0 -6.1-14.6
2018-Feb-16 20:00N 48°30' W 068°30'0 0.0 310 / 171003.2 -5.1-12.9
2018-Feb-16 19:00N 48°30' W 068°30'0 0.0 160 / 131002.0 -5.0-11.5
2018-Feb-16 18:00N 48°30' W 068°30'0 0.0 230 / 71001.4 -4.0-10.1
2018-Feb-16 17:00N 48°30' W 068°30'0 0.0 170 / 61001.4 -4.3-10.8
2018-Feb-16 16:00N 48°30' W 068°30'0 0.0 210 / 41001.2 -3.8-8.5
2018-Feb-16 15:00N 48°30' W 068°30'0 0.0 310 / 101001.5 -2.9-7.4
2018-Feb-16 14:00N 48°30' W 068°30'0 0.0 310 / 191001.5 -2.0-7.4
2018-Feb-16 13:00N 48°30' W 068°30'0 0.0 300 / 191000.8 -1.3-5.7
2018-Feb-16 12:00N 48°30' W 068°30'0 0.0 240 / 151000.0 -0.9-2.9
2018-Feb-16 11:00N 48°30' W 068°30'0 0.0 230 / 12998.6 -0.5-2.6
2018-Feb-16 10:00N 48°30' W 068°30'0 0.0 180 / 11998.0 -0.2-2.2
2018-Feb-16 09:00N 48°30' W 068°30'0 0.0 220 / 15996.4 -0.1-1.8
2018-Feb-16 08:00N 48°30' W 068°30'0 0.0 150 / 18995.4 1.2-0.9
2018-Feb-16 07:00N 48°30' W 068°30'0 0.0 170 / 9995.2 0.3-0.0
2018-Feb-16 06:00N 48°30' W 068°30'0 0.0 150 / 11995.1 -1.9-2.2
2018-Feb-16 05:00N 48°30' W 068°30'0 0.0 160 / 14995.2 -1.4-1.8
2018-Feb-16 04:00N 48°30' W 068°30'0 0.0 150 / 12994.8 -0.6-1.3
2018-Feb-16 03:00N 48°30' W 068°30'0 0.0 310 / 1995.8 0.4-0.5
2018-Feb-16 02:00N 48°30' W 068°30'0 0.0 050 / 4996.8 -0.9-1.3
2018-Feb-16 01:00N 48°30' W 068°30'0 0.0 997.6 -0.5-0.9
2018-Feb-16 00:00N 48°30' W 068°30'0 0.0 040 / 4998.6 -1.2-1.6
2018-Feb-15 23:00N 48°30' W 068°30'0 0.0 070 / 2999.8 -1.6-2.1
2018-Feb-15 22:00N 48°30' W 068°30'0 0.0 070 / 41000.6 -1.8-2.4
2018-Feb-15 21:00N 48°30' W 068°30'0 0.0 050 / 51001.9 -1.9-2.7
2018-Feb-15 20:00N 48°30' W 068°30'0 0.0 040 / 61002.6 -1.8-2.7
2018-Feb-15 19:00N 48°30' W 068°30'0 0.0 050 / 71003.2 -1.5-2.4
2018-Feb-15 18:00N 48°30' W 068°30'0 0.0 040 / 81004.4 -0.9-1.5
2018-Feb-15 17:00N 48°30' W 068°30'0 0.0 060 / 21006.1 -0.6-1.2
2018-Feb-15 16:00N 48°30' W 068°30'0 0.0 030 / 31007.3 -0.8-1.6
2018-Feb-15 15:00N 48°30' W 068°30'0 0.0 050 / 11008.3 0.1-1.9
2018-Feb-15 14:00N 48°30' W 068°30'0 0.0 090 / 21008.6 -0.1-2.1
2018-Feb-15 13:00N 48°30' W 068°30'0 0.0 1009.2 -0.8-1.9
2018-Feb-15 12:00N 48°30' W 068°30'0 0.0 1009.0 0.1-2.8
2018-Feb-15 11:00N 48°30' W 068°30'0 0.0 200 / 41008.9 0.1-2.9
2018-Feb-15 10:00N 48°30' W 068°30'0 0.0 200 / 51009.1 0.1-2.8
2018-Feb-15 09:00N 48°30' W 068°30'0 0.0 140 / 71009.1 -1.0-2.5
2018-Feb-15 08:00N 48°30' W 068°30'0 0.0 140 / 61009.3 -0.7-3.2
2018-Feb-15 07:00N 48°30' W 068°30'0 0.0 140 / 21009.4 -1.3-3.2
2018-Feb-15 06:00N 48°30' W 068°30'0 0.0 140 / 51009.8 -0.6-3.0
2018-Feb-15 05:00N 48°30' W 068°30'0 0.0 150 / 101010.0 -0.3-3.1
2018-Feb-15 04:00N 48°30' W 068°30'0 0.0 210 / 81009.9 -0.0-3.5
2018-Feb-15 03:00N 48°30' W 068°30'0 0.0 140 / 91009.9 -0.2-4.4
2018-Feb-15 02:00N 48°30' W 068°30'0 0.0 150 / 91010.7 -0.7-4.5
2018-Feb-15 01:00N 48°30' W 068°30'0 0.0 200 / 101010.5 -0.4-4.9
2018-Feb-15 00:00N 48°30' W 068°30'0 0.0 210 / 151010.0 -0.8-4.1
2018-Feb-14 23:00N 48°30' W 068°30'0 0.0 150 / 141009.4 -0.9-4.6
2018-Feb-14 22:00N 48°30' W 068°30'0 0.0 150 / 131009.0 -1.4-5.3
2018-Feb-14 21:00N 48°30' W 068°30'0 0.0 160 / 121009.6 -1.7-5.6
2018-Feb-14 20:00N 48°30' W 068°30'0 0.0 240 / 151009.8 -2.1-6.5
2018-Feb-14 19:00N 48°30' W 068°30'0 0.0 240 / 121010.6 -2.1-7.6
2018-Feb-14 18:00N 48°30' W 068°30'0 0.0 210 / 141010.7 -2.4-7.8
2018-Feb-14 17:00N 48°30' W 068°30'0 0.0 140 / 181011.7 -2.0-9.1
2018-Feb-14 16:00N 48°30' W 068°30'0 0.0 180 / 111012.9 -1.6-10.3
2018-Feb-14 15:00N 48°30' W 068°30'0 0.0 190 / 121013.3 -3.5-13.2
2018-Feb-14 14:00N 48°30' W 068°30'0 0.0 190 / 161014.3 -4.4-14.2
2018-Feb-14 13:00N 48°30' W 068°30'0 0.0 180 / 141015.1 -5.4-14.5
2018-Feb-14 12:00N 48°30' W 068°30'0 0.0 190 / 201015.2 -5.8-15.5
2018-Feb-14 11:00N 48°30' W 068°30'0 0.0 200 / 181015.1 -6.3-15.3
2018-Feb-14 10:00N 48°30' W 068°30'0 0.0 180 / 171016.3 -6.6-15.6
2018-Feb-14 09:00N 48°30' W 068°30'0 0.0 180 / 161017.6 -7.0-16.4
2018-Feb-14 08:00N 48°30' W 068°30'0 0.0 180 / 151019.7 -7.7-16.7
2018-Feb-14 07:00N 48°30' W 068°30'0 0.0 190 / 161021.4 -8.6-17.3
2018-Feb-14 06:00N 48°30' W 068°30'0 0.0 190 / 111022.9 -9.6-18.0
2018-Feb-14 05:00N 48°30' W 068°30'0 0.0 190 / 131024.8 -10.4-18.3
2018-Feb-14 04:00N 48°30' W 068°30'0 0.0 200 / 141026.3 -10.0-17.8
2018-Feb-14 03:00N 48°30' W 068°30'0 0.0 200 / 121028.1 -9.3-17.3
2018-Feb-14 01:00N 48°30' W 068°30'0 0.0 200 / 141031.1 -10.9-18.7
2018-Feb-14 00:00N 48°30' W 068°30'0 0.0 200 / 121032.6 -11.7-21.0
2018-Feb-13 23:00N 48°30' W 068°30'0 0.0 200 / 51033.9 -11.5-20.9
2018-Feb-13 22:00N 48°30' W 068°30'0 0.0 210 / 81035.2 -12.2-20.6
2018-Feb-13 21:00N 48°30' W 068°30'0 0.0 220 / 111035.9 -11.2-19.5
2018-Feb-13 20:00N 48°30' W 068°30'0 0.0 210 / 111036.7 -11.4-20.2
2018-Feb-13 19:00N 48°30' W 068°30'0 0.0 230 / 131037.4 -11.7-20.1
2018-Feb-13 18:00N 48°30' W 068°30'0 0.0 220 / 131038.6 -12.3-20.1
2018-Feb-13 17:00N 48°30' W 068°30'0 0.0 220 / 141039.7 -13.8-20.4
2018-Feb-13 16:00N 48°30' W 068°30'0 0.0 240 / 111040.8 -14.1-21.4
2018-Feb-13 15:00N 48°30' W 068°30'0 0.0 180 / 81041.5 -14.9-23.0
2018-Feb-13 14:00N 48°30' W 068°30'0 0.0 270 / 81041.8 -15.5-23.6
2018-Feb-13 13:00N 48°30' W 068°30'0 0.0 170 / 91041.6 -16.6-24.0
2018-Feb-13 12:00N 48°30' W 068°30'0 0.0 220 / 71041.3 -17.2-24.4
2018-Feb-13 11:00N 48°30' W 068°30'0 0.0 180 / 71040.2 -17.3-24.4
2018-Feb-13 10:00N 48°30' W 068°30'0 0.0 280 / 111039.4 -17.2-25.5
2018-Feb-13 09:00N 48°30' W 068°30'0 0.0 290 / 161038.2 -16.5-23.7
2018-Feb-13 08:00N 48°30' W 068°30'0 0.0 280 / 141037.0 -15.8-23.5
2018-Feb-13 07:00N 48°30' W 068°30'0 0.0 280 / 201035.3 -14.9-23.6
2018-Feb-13 06:00N 48°30' W 068°30'0 0.0 270 / 211033.9 -14.1-22.5
2018-Feb-13 05:00N 48°30' W 068°30'0 0.0 260 / 111032.6 -13.1-22.6
2018-Feb-13 04:00N 48°30' W 068°30'0 0.0 280 / 221031.2 -12.0-22.1
2018-Feb-13 03:00N 48°30' W 068°30'0 0.0 220 / 91030.1 -10.9-20.6
2018-Feb-13 02:00N 48°30' W 068°30'0 0.0 270 / 241028.5 -10.3-19.6
2018-Feb-13 01:00N 48°30' W 068°30'0 0.0 240 / 141028.0 -9.5-19.4
2018-Feb-13 00:00N 48°30' W 068°30'0 0.0 170 / 131027.2 -9.0-19.2
2018-Feb-12 23:00N 48°30' W 068°30'0 0.0 260 / 131025.1 -8.2-17.6
2018-Feb-12 22:00N 48°30' W 068°30'0 0.0 270 / 151023.4 -7.0-15.3
2018-Feb-12 21:00N 48°30' W 068°30'0 0.0 260 / 201020.2 -5.6-14.6
2018-Feb-12 19:00N 48°30' W 068°30'0 0.0 260 / 261017.6 -4.6-13.6
2018-Feb-12 18:00N 48°30' W 068°30'0 0.0 240 / 231016.6 -4.7-11.6
2018-Feb-12 17:00N 48°30' W 068°30'0 0.0 240 / 211015.9 -4.6-11.7
2018-Feb-12 16:00N 48°30' W 068°30'0 0.0 220 / 191015.4 -4.4-11.5
2018-Feb-12 15:00N 48°30' W 068°30'0 0.0 230 / 211014.1 -4.4-11.3
2018-Feb-12 14:00N 48°30' W 068°30'0 0.0 210 / 201013.2 -4.2-11.2
2018-Feb-12 13:00N 48°30' W 068°30'0 0.0 220 / 191012.4 -4.2-9.7
2018-Feb-12 12:00N 48°30' W 068°30'0 0.0 170 / 191011.0 -4.1-9.2
2018-Feb-12 11:00N 48°30' W 068°30'0 0.0 180 / 161008.6 -3.9-8.4
2018-Feb-12 10:00N 48°30' W 068°30'   220 / 171007.0 -4.0-6.6

Dump ship's entire track history